Time;durP1;ratioP1;P1;durP2;ratioP2;P2;SDS_P1;SDS_P2;PMS_P1;PMS_P2;Temp;Humidity;BMP_temperature;BMP_pressure;BME280_temperature;BME280_humidity;BME280_pressure;Samples;Min_cycle;Max_cycle;Signal;HPM_P1;HPM_P2
2023/04/18 00:01:44;;;;;;;1.80;1.80;;;18.20;65.20;;;;;;5066334;28;43387;-75
2023/04/18 00:04:13;;;;;;;2.00;2.00;;;18.30;65.00;;;;;;5064831;28;43765;-78
2023/04/18 00:06:41;;;;;;;2.00;2.00;;;18.40;64.80;;;;;;5065737;28;43434;-78
2023/04/18 00:09:09;;;;;;;1.77;1.77;;;18.40;64.70;;;;;;5065434;28;43438;-78
2023/04/18 00:11:40;;;;;;;1.90;1.90;;;18.40;64.80;;;;;;5064744;28;43447;-77
2023/04/18 00:14:09;;;;;;;1.77;1.77;;;18.30;65.40;;;;;;5065691;28;43869;-76
2023/04/18 00:16:38;;;;;;;1.77;1.77;;;18.30;64.70;;;;;;5060123;28;43417;-76
2023/04/18 00:19:09;;;;;;;1.93;1.93;;;18.40;64.80;;;;;;5067607;28;43448;-77
2023/04/18 00:21:37;;;;;;;1.90;1.90;;;18.30;64.70;;;;;;5066012;28;43457;-77
2023/04/18 00:24:05;;;;;;;1.70;1.70;;;18.30;64.80;;;;;;5065292;28;43962;-74
2023/04/18 00:26:33;;;;;;;1.90;1.90;;;18.30;64.90;;;;;;5063922;28;45003;-77
2023/04/18 00:29:02;;;;;;;1.90;1.80;;;18.30;65.00;;;;;;5059357;28;43414;-75
2023/04/18 00:31:30;;;;;;;1.83;1.83;;;18.30;65.00;;;;;;5066280;28;43446;-77
2023/04/18 00:33:59;;;;;;;1.80;1.80;;;18.30;65.00;;;;;;5063815;28;46053;-77
2023/04/18 00:36:27;;;;;;;1.73;1.73;;;18.30;65.00;;;;;;5064158;28;45430;-77
2023/04/18 00:38:55;;;;;;;2.10;2.10;;;18.20;64.90;;;;;;5065490;28;43417;-77
2023/04/18 00:41:26;;;;;;;2.10;2.10;;;18.20;65.10;;;;;;5065901;28;43538;-77
2023/04/18 00:43:54;;;;;;;2.00;2.00;;;18.20;65.10;;;;;;5065289;28;43626;-76
2023/04/18 00:46:22;;;;;;;1.67;1.67;;;18.30;65.10;;;;;;5063778;28;44519;-77
2023/04/18 00:48:50;;;;;;;2.07;2.07;;;18.40;64.80;;;;;;5063839;28;43426;-77
2023/04/18 00:51:20;;;;;;;1.87;1.87;;;18.40;64.50;;;;;;5054722;28;43770;-77
2023/04/18 00:53:48;;;;;;;1.60;1.60;;;18.50;64.40;;;;;;5065444;28;43922;-76
2023/04/18 00:56:16;;;;;;;1.90;1.90;;;18.40;64.40;;;;;;5063693;28;43504;-76
2023/04/18 00:58:44;;;;;;;1.80;1.80;;;18.40;64.50;;;;;;5063741;28;43478;-77
2023/04/18 01:01:12;;;;;;;1.70;1.70;;;18.40;64.50;;;;;;5064961;28;43922;-77
2023/04/18 01:03:40;;;;;;;2.00;2.00;;;18.40;64.50;;;;;;5068247;28;43628;-75
2023/04/18 01:06:08;;;;;;;1.80;1.80;;;18.40;64.60;;;;;;5068706;28;44195;-77
2023/04/18 01:08:38;;;;;;;1.90;1.90;;;18.30;64.70;;;;;;5067147;28;44052;-76
2023/04/18 01:11:06;;;;;;;1.93;1.93;;;18.30;64.80;;;;;;5063991;28;43569;-77
2023/04/18 01:13:34;;;;;;;2.00;2.00;;;18.30;65.00;;;;;;5063499;28;46080;-77
2023/04/18 01:16:03;;;;;;;2.30;2.20;;;18.30;64.90;;;;;;5067646;28;45137;-77
2023/04/18 01:18:33;;;;;;;2.07;2.07;;;18.30;64.90;;;;;;5066600;28;43415;-75
2023/04/18 01:21:01;;;;;;;1.87;1.87;;;18.30;64.90;;;;;;5068674;28;43399;-77
2023/04/18 01:23:29;;;;;;;2.10;2.07;;;18.20;64.90;;;;;;5067082;28;46145;-77
2023/04/18 01:25:59;;;;;;;2.20;2.20;;;18.20;65.10;;;;;;5068365;28;44035;-77
2023/04/18 01:28:27;;;;;;;1.60;1.60;;;18.20;65.10;;;;;;5062568;28;44023;-77
2023/04/18 01:30:56;;;;;;;1.90;1.90;;;18.30;65.00;;;;;;5067219;28;43503;-77
2023/04/18 01:33:24;;;;;;;1.93;1.93;;;18.40;64.70;;;;;;5066830;28;45817;-77
2023/04/18 01:35:52;;;;;;;2.00;2.00;;;18.40;64.40;;;;;;5067967;28;43499;-77
2023/04/18 01:38:20;;;;;;;2.23;2.10;;;18.40;64.30;;;;;;5068374;28;43409;-77
2023/04/18 01:40:48;;;;;;;2.07;2.07;;;18.40;64.50;;;;;;5070158;28;43525;-77
2023/04/18 01:43:19;;;;;;;2.03;2.03;;;18.40;64.50;;;;;;5067920;28;44023;-77
2023/04/18 01:45:47;;;;;;;1.93;1.90;;;18.40;65.20;;;;;;5067849;28;43505;-77
2023/04/18 01:48:15;;;;;;;2.03;2.03;;;18.40;64.50;;;;;;5066587;28;43439;-77
2023/04/18 01:50:43;;;;;;;1.90;1.90;;;18.40;64.70;;;;;;5068357;28;43425;-76
2023/04/18 01:53:11;;;;;;;2.00;2.00;;;18.30;64.70;;;;;;5068019;28;45119;-76
2023/04/18 01:55:41;;;;;;;2.30;2.30;;;18.30;64.90;;;;;;5068937;28;44866;-75
2023/04/18 01:58:09;;;;;;;2.20;2.20;;;18.30;64.90;;;;;;5067693;28;43367;-77
2023/04/18 02:00:41;;;;;;;2.00;1.90;;;18.30;64.80;;;;;;5066242;28;43522;-78
2023/04/18 02:03:08;;;;;;;2.10;2.10;;;18.20;64.80;;;;;;5065563;28;45808;-77
2023/04/18 02:05:37;;;;;;;1.97;1.97;;;18.20;64.80;;;;;;5049195;28;43361;-77
2023/04/18 02:08:08;;;;;;;2.10;2.10;;;18.20;65.00;;;;;;5065903;28;43418;-77
2023/04/18 02:10:37;;;;;;;2.07;2.00;;;18.20;65.10;;;;;;5068624;28;43975;-77
2023/04/18 02:13:05;;;;;;;2.00;2.00;;;18.20;64.90;;;;;;5067087;28;44132;-76
2023/04/18 02:15:33;;;;;;;1.93;1.93;;;18.30;64.70;;;;;;5063268;28;43453;-77
2023/04/18 02:18:03;;;;;;;2.00;2.00;;;18.40;64.50;;;;;;5065751;28;43387;-76
2023/04/18 02:20:32;;;;;;;2.00;2.00;;;18.40;64.50;;;;;;5064664;28;43486;-77
2023/04/18 02:23:01;;;;;;;2.23;2.23;;;18.30;64.50;;;;;;5065801;28;45792;-77
2023/04/18 02:25:29;;;;;;;2.20;2.20;;;18.30;64.70;;;;;;5066176;28;44444;-77
2023/04/18 02:27:57;;;;;;;2.23;2.23;;;18.30;64.60;;;;;;5064357;28;43471;-77
2023/04/18 02:30:25;;;;;;;2.00;2.00;;;18.30;64.50;;;;;;5067559;28;43527;-77
2023/04/18 02:32:55;;;;;;;2.07;2.07;;;18.30;64.70;;;;;;5066447;28;43911;-77
2023/04/18 02:35:25;;;;;;;2.27;2.27;;;18.30;64.80;;;;;;5065580;28;44757;-77
2023/04/18 02:37:53;;;;;;;2.10;2.10;;;18.20;64.80;;;;;;5066988;28;43410;-77
2023/04/18 02:40:21;;;;;;;2.30;2.30;;;18.20;64.90;;;;;;5067486;28;43422;-75
2023/04/18 02:42:49;;;;;;;2.10;2.10;;;18.20;64.80;;;;;;5065589;28;46071;-77
2023/04/18 02:45:17;;;;;;;2.07;1.97;;;18.30;64.90;;;;;;5066939;28;43902;-75
2023/04/18 02:47:45;;;;;;;2.07;2.07;;;18.20;64.80;;;;;;5065693;28;43504;-75
2023/04/18 02:50:21;;;;;;;2.13;2.07;;;18.20;64.90;;;;;;5064391;28;43534;-76
2023/04/18 02:52:51;;;;;;;2.30;2.30;;;18.20;65.00;;;;;;5062034;28;46009;-77
2023/04/18 02:55:23;;;;;;;2.20;2.20;;;18.20;65.10;;;;;;5072866;27;44114;-76
2023/04/18 02:57:53;;;;;;;2.30;2.30;;;18.20;64.80;;;;;;5065134;28;43490;-77
2023/04/18 03:00:39;;;;;;;2.00;2.00;;;18.40;64.60;;;;;;5065807;28;43398;-77
2023/04/18 03:03:39;;;;;;;2.20;2.20;;;18.40;64.20;;;;;;5054448;28;43783;-77
2023/04/18 03:06:31;;;;;;;2.20;2.20;;;18.40;64.10;;;;;;5065100;28;43404;-71
2023/04/18 03:09:02;;;;;;;1.90;1.90;;;18.40;64.40;;;;;;5064606;28;43462;-72
2023/04/18 03:11:33;;;;;;;2.00;2.00;;;18.40;64.40;;;;;;5066595;28;43991;-77
2023/04/18 03:14:01;;;;;;;2.30;2.30;;;18.40;64.30;;;;;;5063750;28;45872;-77
2023/04/18 03:16:37;;;;;;;2.10;2.10;;;18.40;64.40;;;;;;5064856;28;43407;-77
2023/04/18 03:19:07;;;;;;;2.20;2.20;;;18.30;64.50;;;;;;5054853;28;44290;-76
2023/04/18 03:21:38;;;;;;;2.47;2.47;;;18.30;64.60;;;;;;5077522;28;43470;-77
2023/04/18 03:24:08;;;;;;;2.40;2.30;;;18.20;64.60;;;;;;5058311;28;43974;-77
2023/04/18 03:26:40;;;;;;;2.20;2.20;;;18.20;65.40;;;;;;5064556;28;43379;-77
2023/04/18 03:29:09;;;;;;;2.00;2.00;;;18.20;64.60;;;;;;5063957;28;44064;-77
2023/04/18 03:31:37;;;;;;;2.33;2.33;;;18.20;64.70;;;;;;5065199;28;44088;-77
2023/04/18 03:34:05;;;;;;;2.27;2.27;;;18.20;64.80;;;;;;5064749;28;45575;-76
2023/04/18 03:36:33;;;;;;;2.20;2.20;;;18.20;64.90;;;;;;5064715;28;43424;-77
2023/04/18 03:39:01;;;;;;;2.10;2.10;;;18.20;64.90;;;;;;5064325;28;43956;-76
2023/04/18 03:41:30;;;;;;;2.13;2.13;;;18.20;64.80;;;;;;5065551;28;43618;-76
2023/04/18 03:43:59;;;;;;;2.10;2.10;;;18.30;64.60;;;;;;5064687;28;44862;-76
2023/04/18 03:46:28;;;;;;;2.20;2.10;;;18.40;64.30;;;;;;5054982;28;44874;-76
2023/04/18 03:48:57;;;;;;;2.37;2.33;;;18.40;64.00;;;;;;5065134;28;43498;-76
2023/04/18 03:51:25;;;;;;;2.20;2.20;;;18.40;64.20;;;;;;5066056;28;43438;-78
2023/04/18 03:53:53;;;;;;;2.43;2.43;;;18.40;64.30;;;;;;5064431;28;46100;-78
2023/04/18 03:56:23;;;;;;;2.23;2.23;;;18.40;64.30;;;;;;5064715;28;44441;-78
2023/04/18 03:58:54;;;;;;;2.47;2.37;;;18.40;64.20;;;;;;5064449;28;43432;-77
2023/04/18 04:01:23;;;;;;;2.10;2.10;;;18.30;64.30;;;;;;5064579;28;43525;-76
2023/04/18 04:03:52;;;;;;;2.23;2.23;;;18.30;64.50;;;;;;5068240;28;43856;-76
2023/04/18 04:06:21;;;;;;;2.00;2.00;;;18.30;64.60;;;;;;5064401;28;43682;-76
2023/04/18 04:08:50;;;;;;;2.20;2.20;;;18.20;64.70;;;;;;5065761;28;43490;-77
2023/04/18 04:11:23;;;;;;;2.13;2.13;;;18.20;64.60;;;;;;5064499;28;43598;-77
2023/04/18 04:13:51;;;;;;;1.93;1.93;;;18.20;64.60;;;;;;5063351;28;45327;-77
2023/04/18 04:16:24;;;;;;;2.23;2.23;;;18.20;64.70;;;;;;5062546;28;44705;-76
2023/04/18 04:18:54;;;;;;;2.07;2.07;;;18.20;64.80;;;;;;5058333;28;43441;-77
2023/04/18 04:21:29;;;;;;;2.73;2.73;;;18.20;64.90;;;;;;5073329;27;43532;-76
2023/04/18 04:23:57;;;;;;;2.37;2.37;;;18.20;64.90;;;;;;5046819;28;45534;-76
2023/04/18 04:26:41;;;;;;;2.30;2.30;;;18.20;64.90;;;;;;5067218;28;43448;-76
2023/04/18 04:29:20;;;;;;;2.20;2.20;;;18.30;64.60;;;;;;5061649;28;43485;-77
2023/04/18 04:31:50;;;;;;;2.30;2.30;;;18.30;64.30;;;;;;5064703;28;43335;-75
2023/04/18 04:34:29;;;;;;;2.50;2.50;;;18.30;64.40;;;;;;5062797;28;45010;-77
2023/04/18 04:36:59;;;;;;;2.30;2.30;;;18.20;64.50;;;;;;5066076;28;43567;-77
2023/04/18 04:39:28;;;;;;;2.20;2.20;;;18.20;64.60;;;;;;5052926;28;43503;-77
2023/04/18 04:42:27;;;;;;;2.50;2.50;;;18.20;64.50;;;;;;5067820;28;43585;-77
2023/04/18 04:45:02;;;;;;;2.37;2.37;;;18.20;64.40;;;;;;5064113;28;45684;-76
2023/04/18 04:47:31;;;;;;;2.10;2.10;;;18.20;65.30;;;;;;5062791;28;44679;-77
2023/04/18 04:49:59;;;;;;;2.83;2.67;;;18.20;64.50;;;;;;5066932;28;43467;-75
2023/04/18 04:52:27;;;;;;;3.70;3.60;;;18.10;64.80;;;;;;5067270;28;43655;-76
2023/04/18 04:54:55;;;;;;;4.80;4.43;;;18.10;63.00;;;;;;5067314;28;44957;-77
2023/04/18 04:57:24;;;;;;;4.20;4.10;;;18.20;61.60;;;;;;5067592;28;43475;-77
2023/04/18 04:59:53;;;;;;;3.60;3.50;;;18.20;61.80;;;;;;5066740;28;43439;-77
2023/04/18 05:02:22;;;;;;;3.60;3.50;;;18.30;62.50;;;;;;5067694;28;43481;-76
2023/04/18 05:04:51;;;;;;;3.47;3.37;;;18.30;62.80;;;;;;5068279;28;43856;-77
2023/04/18 05:07:19;;;;;;;3.50;3.40;;;18.30;63.10;;;;;;5068774;28;43455;-77
2023/04/18 05:09:48;;;;;;;3.73;3.63;;;18.30;63.30;;;;;;5068535;28;43482;-76
2023/04/18 05:12:19;;;;;;;4.17;3.47;;;18.30;63.20;;;;;;5069173;28;43584;-77
2023/04/18 05:14:50;;;;;;;3.20;3.10;;;18.30;63.30;;;;;;5068388;28;43907;-77
2023/04/18 05:17:18;;;;;;;3.30;3.20;;;18.20;63.30;;;;;;5068597;28;43373;-76
2023/04/18 05:19:46;;;;;;;3.57;3.47;;;18.20;63.60;;;;;;5061177;28;44129;-76
2023/04/18 05:22:15;;;;;;;3.60;3.50;;;18.20;63.80;;;;;;5067534;28;43773;-77
2023/04/18 05:24:43;;;;;;;2.83;2.73;;;18.20;63.80;;;;;;5068450;28;43853;-77
2023/04/18 05:27:11;;;;;;;3.43;3.33;;;18.20;63.60;;;;;;5065292;28;43500;-77
2023/04/18 05:29:39;;;;;;;3.40;3.30;;;18.20;63.70;;;;;;5068693;28;43472;-76
2023/04/18 05:32:07;;;;;;;3.10;3.00;;;18.10;63.80;;;;;;5067092;28;43570;-77
2023/04/18 05:34:36;;;;;;;3.47;3.27;;;18.10;63.80;;;;;;5067907;28;44014;-77
2023/04/18 05:37:05;;;;;;;3.10;3.00;;;18.10;64.10;;;;;;5056488;28;44411;-77
2023/04/18 05:39:35;;;;;;;3.43;3.33;;;18.10;64.00;;;;;;5068144;28;43989;-77
2023/04/18 05:42:03;;;;;;;3.40;3.27;;;18.10;63.70;;;;;;5067785;28;43523;-77
2023/04/18 05:44:31;;;;;;;3.20;3.10;;;18.20;63.90;;;;;;5066458;28;45970;-72
2023/04/18 05:46:59;;;;;;;3.10;3.00;;;18.10;64.00;;;;;;5067836;28;43383;-77
2023/04/18 05:49:27;;;;;;;2.90;2.80;;;18.10;64.80;;;;;;5068601;28;43467;-77
2023/04/18 05:51:56;;;;;;;3.40;3.30;;;18.10;64.20;;;;;;5068439;28;43498;-77
2023/04/18 05:54:24;;;;;;;3.13;3.10;;;18.20;64.20;;;;;;5053629;28;46975;-77
2023/04/18 05:56:54;;;;;;;2.87;2.77;;;18.30;64.00;;;;;;5067802;28;43375;-77
2023/04/18 05:59:22;;;;;;;3.37;3.17;;;18.40;63.70;;;;;;5065857;28;43426;-77
2023/04/18 06:01:51;;;;;;;3.10;3.00;;;18.40;63.30;;;;;;5068232;28;43625;-77
2023/04/18 06:04:19;;;;;;;2.97;2.87;;;18.40;63.10;;;;;;5065941;28;45507;-77
2023/04/18 06:06:48;;;;;;;3.20;3.10;;;18.40;63.60;;;;;;5067727;28;43507;-76
2023/04/18 06:09:16;;;;;;;3.10;3.00;;;18.40;63.60;;;;;;5068069;28;43416;-77
2023/04/18 06:11:44;;;;;;;3.10;3.00;;;18.30;63.20;;;;;;5066562;28;43690;-77
2023/04/18 06:14:13;;;;;;;3.40;3.20;;;18.30;63.30;;;;;;5067342;28;45120;-78
2023/04/18 06:16:41;;;;;;;3.20;3.10;;;18.30;63.70;;;;;;5060885;28;43376;-77
2023/04/18 06:19:12;;;;;;;3.10;3.00;;;18.30;63.80;;;;;;5055801;28;43405;-75
2023/04/18 06:21:41;;;;;;;3.07;2.97;;;18.20;64.00;;;;;;5068337;28;43854;-75
2023/04/18 06:24:11;;;;;;;2.97;2.90;;;18.20;63.90;;;;;;5067782;28;43911;-77
2023/04/18 06:26:41;;;;;;;3.00;3.00;;;18.20;63.70;;;;;;5065428;28;44969;-77
2023/04/18 06:29:14;;;;;;;2.83;2.80;;;18.20;64.20;;;;;;5062082;28;43414;-77
2023/04/18 06:31:47;;;;;;;3.00;3.00;;;18.20;64.10;;;;;;5066198;28;44170;-76
2023/04/18 06:34:15;;;;;;;3.10;3.00;;;18.20;64.10;;;;;;5067289;28;43559;-77
2023/04/18 06:36:43;;;;;;;3.23;3.13;;;18.20;64.40;;;;;;5065758;28;44880;-76
2023/04/18 06:39:13;;;;;;;3.07;2.97;;;18.20;64.20;;;;;;5065972;28;43465;-74
2023/04/18 06:41:41;;;;;;;3.10;3.00;;;18.30;64.00;;;;;;5066443;28;43873;-77
2023/04/18 06:44:09;;;;;;;3.13;3.03;;;18.30;63.70;;;;;;5065647;28;46339;-77
2023/04/18 06:46:38;;;;;;;3.30;3.10;;;18.40;63.50;;;;;;5065422;28;44841;-76
2023/04/18 06:49:06;;;;;;;3.40;3.30;;;18.30;63.60;;;;;;5068224;28;43405;-77
2023/04/18 06:51:34;;;;;;;3.20;3.10;;;18.30;63.90;;;;;;5066106;28;43550;-76
2023/04/18 06:54:02;;;;;;;3.20;3.10;;;18.30;63.70;;;;;;5063377;28;43912;-75
2023/04/18 06:56:30;;;;;;;3.00;2.90;;;18.30;63.60;;;;;;5066803;28;43438;-75
2023/04/18 06:58:58;;;;;;;3.13;3.03;;;18.30;63.80;;;;;;5066897;28;43422;-76
2023/04/18 07:01:26;;;;;;;3.40;3.30;;;18.20;63.80;;;;;;5067019;28;43437;-76
2023/04/18 07:03:55;;;;;;;3.77;3.67;;;18.20;64.00;;;;;;5066586;28;43800;-77
2023/04/18 07:06:23;;;;;;;3.03;2.93;;;18.20;64.20;;;;;;5065121;28;44396;-77
2023/04/18 07:08:51;;;;;;;2.87;2.87;;;18.20;63.90;;;;;;5066367;28;43819;-77
2023/04/18 07:11:22;;;;;;;2.90;2.90;;;18.20;64.00;;;;;;5067271;28;43455;-76
2023/04/18 07:13:50;;;;;;;2.93;2.90;;;18.20;64.10;;;;;;5066588;28;43655;-77
2023/04/18 07:16:18;;;;;;;2.90;2.90;;;18.10;64.00;;;;;;5065789;28;43770;-75
2023/04/18 07:18:46;;;;;;;2.90;2.90;;;18.10;64.20;;;;;;5059778;28;43976;-76
2023/04/18 07:21:15;;;;;;;3.17;3.07;;;18.10;64.20;;;;;;5067357;28;43993;-72
2023/04/18 07:23:43;;;;;;;2.80;2.80;;;18.10;63.90;;;;;;5065246;28;46207;-77
2023/04/18 07:26:12;;;;;;;3.30;3.20;;;18.10;64.00;;;;;;5066666;28;43456;-77
2023/04/18 07:28:40;;;;;;;2.70;2.70;;;18.10;64.10;;;;;;5058499;28;43474;-77
2023/04/18 07:31:10;;;;;;;3.40;3.30;;;18.10;64.10;;;;;;5066985;28;43398;-76
2023/04/18 07:33:38;;;;;;;3.10;3.00;;;18.10;64.30;;;;;;5064982;28;45703;-77
2023/04/18 07:36:07;;;;;;;3.07;3.07;;;18.10;64.30;;;;;;5065013;28;44696;-77
2023/04/18 07:38:36;;;;;;;2.97;2.93;;;18.20;64.10;;;;;;5066737;28;43449;-77
2023/04/18 07:41:04;;;;;;;3.20;3.10;;;18.40;63.80;;;;;;5065046;28;43352;-76
2023/04/18 07:43:32;;;;;;;3.10;3.10;;;18.40;63.50;;;;;;5066134;28;43600;-77
2023/04/18 07:46:00;;;;;;;2.80;2.70;;;18.40;63.10;;;;;;5066563;28;43442;-77
2023/04/18 07:48:28;;;;;;;3.00;3.00;;;18.40;63.10;;;;;;5067571;28;43612;-77
2023/04/18 07:50:56;;;;;;;2.90;2.90;;;18.40;63.60;;;;;;5066894;28;44104;-75
2023/04/18 07:53:24;;;;;;;3.40;3.30;;;18.40;63.50;;;;;;5065641;28;44030;-75
2023/04/18 07:55:54;;;;;;;3.27;3.17;;;18.40;64.00;;;;;;5056913;28;44752;-77
2023/04/18 07:58:22;;;;;;;2.97;2.93;;;18.30;63.40;;;;;;5060206;28;43446;-77
2023/04/18 08:00:50;;;;;;;2.93;2.93;;;18.30;63.60;;;;;;5058381;28;43435;-77
2023/04/18 08:03:18;;;;;;;3.83;3.53;;;18.30;63.70;;;;;;5065772;28;44035;-77
2023/04/18 08:05:46;;;;;;;4.73;4.30;;;18.20;63.90;;;;;;5065993;28;43465;-76
2023/04/18 08:08:14;;;;;;;4.50;4.20;;;18.20;63.70;;;;;;5065999;28;43482;-77
2023/04/18 08:10:42;;;;;;;7.30;4.27;;;18.20;63.80;;;;;;5064769;28;43549;-77
2023/04/18 08:13:12;;;;;;;4.13;3.83;;;18.20;63.90;;;;;;5069645;28;43930;-77
2023/04/18 08:15:40;;;;;;;8.97;4.83;;;18.20;64.00;;;;;;5067758;28;44049;-77
2023/04/18 08:18:08;;;;;;;9.77;5.40;;;18.10;63.90;;;;;;5065396;28;43414;-77
2023/04/18 08:20:37;;;;;;;9.30;5.63;;;18.10;64.20;;;;;;5068358;28;43505;-76
2023/04/18 08:23:06;;;;;;;11.00;5.93;;;18.20;64.10;;;;;;5069067;28;43582;-75
2023/04/18 08:25:39;;;;;;;13.33;6.47;;;18.30;64.00;;;;;;5053464;28;43510;-77
2023/04/18 08:28:07;;;;;;;11.10;6.30;;;18.30;63.60;;;;;;5065945;28;43466;-76
2023/04/18 08:30:36;;;;;;;12.73;6.57;;;18.30;63.30;;;;;;5065762;28;43469;-77
2023/04/18 08:33:04;;;;;;;12.70;6.57;;;18.30;63.60;;;;;;5068605;28;43942;-77
2023/04/18 08:35:34;;;;;;;12.73;7.17;;;18.30;63.80;;;;;;5069147;28;43401;-76
2023/04/18 08:38:02;;;;;;;12.33;6.43;;;18.30;63.40;;;;;;5067676;28;43426;-75
2023/04/18 08:40:30;;;;;;;12.20;5.97;;;18.30;63.60;;;;;;5056381;28;43667;-77
2023/04/18 08:42:58;;;;;;;9.73;6.53;;;18.20;63.50;;;;;;5069442;28;43863;-77
2023/04/18 08:45:27;;;;;;;12.20;7.07;;;18.20;63.70;;;;;;5070678;28;45059;-77
2023/04/18 08:48:00;;;;;;;13.03;6.77;;;18.10;63.80;;;;;;5068741;28;43889;-77
2023/04/18 08:50:28;;;;;;;12.90;7.33;;;18.20;64.30;;;;;;5069725;28;43386;-75
2023/04/18 08:52:56;;;;;;;13.50;7.00;;;18.20;64.00;;;;;;5060388;28;45968;-76
2023/04/18 08:55:24;;;;;;;11.37;6.60;;;18.10;63.80;;;;;;5068745;28;43880;-76
2023/04/18 08:57:54;;;;;;;11.97;7.20;;;18.10;64.50;;;;;;5069036;28;43388;-77
2023/04/18 09:00:22;;;;;;;15.53;7.70;;;18.10;64.00;;;;;;5069073;28;43404;-75
2023/04/18 09:02:55;;;;;;;14.63;7.33;;;18.10;64.40;;;;;;5066967;28;45632;-76
2023/04/18 09:05:25;;;;;;;15.20;8.50;;;18.10;64.50;;;;;;5068674;28;43332;-73
2023/04/18 09:07:54;;;;;;;14.07;7.30;;;18.20;64.40;;;;;;5059245;28;43393;-77
2023/04/18 09:10:27;;;;;;;12.07;7.50;;;18.30;64.10;;;;;;5069622;28;43486;-78
2023/04/18 09:12:56;;;;;;;16.50;7.67;;;18.30;63.70;;;;;;5064851;28;43855;-77
2023/04/18 09:15:25;;;;;;;13.80;7.17;;;18.30;63.70;;;;;;5068498;28;43836;-75
2023/04/18 09:17:54;;;;;;;12.47;7.60;;;18.30;64.10;;;;;;5061552;28;43406;-77
2023/04/18 09:20:33;;;;;;;12.00;7.57;;;18.20;63.90;;;;;;5064367;28;44045;-77
2023/04/18 09:23:02;;;;;;;9.20;6.70;;;18.30;63.70;;;;;;5066256;28;45790;-73
2023/04/18 09:25:33;;;;;;;13.27;7.00;;;18.20;63.80;;;;;;5068340;28;44062;-78
2023/04/18 09:28:01;;;;;;;12.60;7.20;;;18.20;63.80;;;;;;5054638;28;43352;-72
2023/04/18 09:30:35;;;;;;;12.03;7.17;;;18.10;63.80;;;;;;5067509;28;43465;-77
2023/04/18 09:33:04;;;;;;;9.90;6.53;;;18.10;64.40;;;;;;5068267;28;43611;-77
2023/04/18 09:35:34;;;;;;;10.20;6.37;;;18.10;64.10;;;;;;5066667;28;45399;-76
2023/04/18 09:38:05;;;;;;;11.03;6.57;;;18.10;64.00;;;;;;5068234;28;44313;-74
2023/04/18 09:40:35;;;;;;;7.40;6.20;;;18.10;64.20;;;;;;5064303;28;43443;-75
2023/04/18 09:43:17;;;;;;;9.53;6.80;;;18.10;64.20;;;;;;5065663;28;43928;-77
2023/04/18 09:45:46;;;;;;;12.30;6.90;;;18.00;64.20;;;;;;5067372;28;43479;-77
2023/04/18 09:48:14;;;;;;;12.33;7.07;;;18.10;64.70;;;;;;5068212;28;43502;-77
2023/04/18 09:50:43;;;;;;;10.90;6.57;;;18.10;64.10;;;;;;5068629;28;43482;-77
2023/04/18 09:53:12;;;;;;;8.20;6.13;;;18.10;64.20;;;;;;5068111;28;43915;-77
2023/04/18 09:55:41;;;;;;;8.43;6.17;;;18.10;64.40;;;;;;5066244;28;43465;-77
2023/04/18 09:58:09;;;;;;;9.30;7.20;;;18.00;64.30;;;;;;5067860;28;43581;-76
2023/04/18 10:00:37;;;;;;;8.63;6.53;;;18.00;64.70;;;;;;5068049;28;43604;-77
2023/04/18 10:03:06;;;;;;;9.10;6.30;;;18.10;64.80;;;;;;5067609;28;44049;-77
2023/04/18 10:05:35;;;;;;;10.17;6.60;;;18.20;64.60;;;;;;5068128;28;43625;-77
2023/04/18 10:08:05;;;;;;;8.30;5.90;;;18.30;64.30;;;;;;5070067;27;43463;-77
2023/04/18 10:10:33;;;;;;;7.70;6.50;;;18.30;63.90;;;;;;5068013;28;43989;-77
2023/04/18 10:13:02;;;;;;;8.93;6.33;;;18.30;63.70;;;;;;5066076;28;43922;-74
2023/04/18 10:15:30;;;;;;;7.63;6.13;;;18.30;63.70;;;;;;5066286;28;44721;-75
2023/04/18 10:17:59;;;;;;;8.80;6.50;;;18.30;64.10;;;;;;5064895;28;43417;-78
2023/04/18 10:20:33;;;;;;;6.30;5.70;;;18.30;64.00;;;;;;5064716;28;43421;-78
2023/04/18 10:23:34;;;;;;;6.90;6.20;;;18.30;64.00;;;;;;5067492;28;43867;-77
2023/04/18 10:26:02;;;;;;;8.43;5.77;;;18.20;64.10;;;;;;5076858;27;45061;-77
2023/04/18 10:28:53;;;;;;;7.03;6.00;;;18.20;64.20;;;;;;5061201;28;43935;-76
2023/04/18 10:31:24;;;;;;;8.97;5.80;;;18.20;64.50;;;;;;5067666;28;44001;-76
2023/04/18 10:33:53;;;;;;;7.33;6.07;;;18.10;64.60;;;;;;5068111;28;43859;-77
2023/04/18 10:37:03;;;;;;;6.43;5.40;;;18.10;64.50;;;;;;5063426;28;44039;-77
2023/04/18 10:39:46;;;;;;;6.57;5.73;;;18.10;64.70;;;;;;5065841;28;43538;-71
2023/04/18 10:42:14;;;;;;;5.90;5.40;;;18.10;64.70;;;;;;5067324;28;43560;-77
2023/04/18 10:44:42;;;;;;;6.60;5.97;;;18.10;64.90;;;;;;5066987;28;43934;-77
2023/04/18 10:47:21;;;;;;;6.97;6.30;;;18.10;65.10;;;;;;5065884;28;44675;-75
2023/04/18 10:49:57;;;;;;;5.73;5.23;;;18.10;64.80;;;;;;5067172;28;43384;-77
2023/04/18 10:52:25;;;;;;;6.00;5.50;;;18.10;64.90;;;;;;5064267;28;43492;-77
2023/04/18 10:54:58;;;;;;;6.13;5.67;;;18.10;65.00;;;;;;5065427;28;46475;-76
2023/04/18 10:57:33;;;;;;;7.97;5.90;;;18.00;64.90;;;;;;5065913;28;44512;-77
2023/04/18 11:00:01;;;;;;;6.03;5.60;;;18.00;65.00;;;;;;5064751;28;43956;-71
2023/04/18 11:02:30;;;;;;;5.87;5.30;;;18.10;65.30;;;;;;5068652;28;43540;-76
2023/04/18 11:05:00;;;;;;;6.50;5.90;;;18.20;65.20;;;;;;5067292;28;43604;-77
2023/04/18 11:07:34;;;;;;;6.43;5.83;;;18.30;64.90;;;;;;5067123;28;43438;-76
2023/04/18 11:10:04;;;;;;;6.57;5.97;;;18.30;64.40;;;;;;5066396;28;43670;-77
2023/04/18 11:12:32;;;;;;;6.17;5.57;;;18.30;64.00;;;;;;5065768;28;43951;-76
2023/04/18 11:15:04;;;;;;;6.47;5.57;;;18.30;64.30;;;;;;5062603;28;45762;-77
2023/04/18 11:17:33;;;;;;;6.07;5.57;;;18.30;64.60;;;;;;5060729;28;43374;-76
2023/04/18 11:20:07;;;;;;;6.20;5.60;;;18.30;64.40;;;;;;5062770;28;43410;-77
2023/04/18 11:22:44;;;;;;;5.50;5.10;;;18.30;64.50;;;;;;5067066;28;43449;-77
2023/04/18 11:25:13;;;;;;;5.37;4.97;;;18.30;64.60;;;;;;5066401;28;43843;-77
2023/04/18 11:27:43;;;;;;;6.50;5.90;;;18.20;64.60;;;;;;5056066;28;43484;-77
2023/04/18 11:30:11;;;;;;;5.10;4.80;;;18.20;64.90;;;;;;5049836;28;43459;-77
2023/04/18 11:32:39;;;;;;;5.70;5.20;;;18.20;64.90;;;;;;5066896;28;43489;-73
2023/04/18 11:35:09;;;;;;;5.30;5.00;;;18.20;64.90;;;;;;5079642;27;45765;-76
2023/04/18 11:37:37;;;;;;;5.13;4.83;;;18.10;65.00;;;;;;5066068;28;43499;-76
2023/04/18 11:40:06;;;;;;;5.67;5.23;;;18.10;65.00;;;;;;5066511;28;43427;-77
2023/04/18 11:42:36;;;;;;;5.67;5.27;;;18.10;65.10;;;;;;5065325;28;43880;-77
2023/04/18 11:45:08;;;;;;;5.70;5.20;;;18.10;65.40;;;;;;5065674;28;43859;-77
2023/04/18 11:47:36;;;;;;;6.40;5.90;;;18.10;65.30;;;;;;5066263;28;43883;-77
2023/04/18 11:50:07;;;;;;;5.87;5.37;;;18.20;65.10;;;;;;5066320;28;44018;-77
2023/04/18 11:52:36;;;;;;;5.27;4.83;;;18.30;65.50;;;;;;5066532;28;43437;-76
2023/04/18 11:55:16;;;;;;;5.10;4.80;;;18.30;64.60;;;;;;5066333;28;43697;-77
2023/04/18 11:57:51;;;;;;;5.17;4.87;;;18.30;64.80;;;;;;5074454;27;44446;-77
2023/04/18 12:00:22;;;;;;;5.47;5.17;;;18.20;65.00;;;;;;5083496;27;44431;-76
2023/04/18 12:02:50;;;;;;;4.97;4.67;;;18.30;65.00;;;;;;5066765;28;43371;-77
2023/04/18 12:05:25;;;;;;;5.47;5.07;;;18.20;64.80;;;;;;5064308;28;45995;-77
2023/04/18 12:07:53;;;;;;;5.50;5.10;;;18.20;65.00;;;;;;5065946;28;43465;-77
2023/04/18 12:10:28;;;;;;;5.23;4.87;;;18.20;65.10;;;;;;5064363;28;43422;-77
2023/04/18 12:12:58;;;;;;;5.00;4.70;;;18.10;65.10;;;;;;5065123;28;43550;-75
2023/04/18 12:15:27;;;;;;;5.30;5.00;;;18.10;65.20;;;;;;5065996;28;43811;-77
2023/04/18 12:17:57;;;;;;;5.17;4.80;;;18.10;65.10;;;;;;5063273;28;43466;-77
2023/04/18 12:20:33;;;;;;;4.90;4.70;;;18.10;65.10;;;;;;5065583;28;43415;-76
2023/04/18 12:23:02;;;;;;;4.87;4.57;;;18.10;65.10;;;;;;5064400;28;43375;-75
2023/04/18 12:25:30;;;;;;;5.00;4.70;;;18.10;65.20;;;;;;5064156;28;46219;-77
2023/04/18 12:28:00;;;;;;;5.17;4.87;;;18.10;65.40;;;;;;5058248;28;44860;-77
2023/04/18 12:30:30;;;;;;;4.87;4.57;;;18.10;65.40;;;;;;5068656;28;43377;-77
2023/04/18 12:33:00;;;;;;;4.53;4.33;;;18.10;65.10;;;;;;5060673;28;43585;-73
2023/04/18 12:35:28;;;;;;;4.43;4.13;;;18.10;65.20;;;;;;5057049;28;43637;-77
2023/04/18 12:37:57;;;;;;;4.80;4.50;;;18.10;65.30;;;;;;5058371;28;44198;-76
2023/04/18 12:40:25;;;;;;;5.17;4.83;;;18.10;65.30;;;;;;5056219;28;43961;-76
2023/04/18 12:42:56;;;;;;;5.10;4.80;;;18.00;65.30;;;;;;5066140;28;44184;-76
2023/04/18 12:45:25;;;;;;;5.00;4.70;;;18.10;65.50;;;;;;5060925;28;45955;-76
2023/04/18 12:47:53;;;;;;;4.80;4.50;;;18.10;65.20;;;;;;5057371;28;43496;-77
2023/04/18 12:50:22;;;;;;;5.10;4.80;;;18.20;64.80;;;;;;5064052;28;44042;-77
2023/04/18 12:52:51;;;;;;;4.70;4.50;;;18.30;64.60;;;;;;5066172;28;43450;-76
2023/04/18 12:55:19;;;;;;;4.33;4.20;;;18.30;64.30;;;;;;5060412;28;45822;-76
2023/04/18 12:57:47;;;;;;;5.00;4.70;;;18.30;64.30;;;;;;5048856;28;44965;-76
2023/04/18 13:00:15;;;;;;;4.50;4.30;;;18.30;64.60;;;;;;5063033;28;43469;-76